createdAt,value
2022-10-05T00:02:53.719Z,101714.13
2022-10-05T00:05:55.128Z,101713.94
2022-10-05T00:08:56.578Z,101716.38
2022-10-05T00:11:58.216Z,101723.19
2022-10-05T00:15:01.431Z,101711.81
2022-10-05T00:18:09.384Z,101717.84
2022-10-05T00:21:19.624Z,101726.44
2022-10-05T00:24:20.989Z,101717.91
2022-10-05T00:27:25.408Z,101711.97
2022-10-05T00:30:32.134Z,101703.41
2022-10-05T00:33:33.505Z,101704.47
2022-10-05T00:36:34.896Z,101701.19
2022-10-05T00:39:40.330Z,101695.25
2022-10-05T00:42:51.221Z,101694.47
2022-10-05T00:46:25.498Z,101698.69
2022-10-05T00:50:04.552Z,101693.72
2022-10-05T00:53:25.383Z,101675.50
2022-10-05T00:56:59.337Z,101679.97
2022-10-05T01:00:08.406Z,101667.78
2022-10-05T01:03:25.965Z,101657.41
2022-10-05T01:06:46.571Z,101666.09
2022-10-05T01:10:08.378Z,101660.19
2022-10-05T01:13:35.953Z,101665.56
2022-10-05T01:16:41.059Z,101664.66
2022-10-05T01:19:58.418Z,101651.78
2022-10-05T01:23:21.183Z,101654.53
2022-10-05T01:26:44.237Z,101649.41
2022-10-05T01:30:02.474Z,101642.63
2022-10-05T01:33:11.550Z,101646.13
2022-10-05T01:36:12.846Z,101645.22
2022-10-05T01:39:29.184Z,101644.38
2022-10-05T01:42:48.868Z,101651.16
2022-10-05T01:46:08.895Z,101651.22
2022-10-05T01:49:30.179Z,101650.41
2022-10-05T01:52:57.078Z,101651.16
2022-10-05T01:56:07.708Z,101647.75
2022-10-05T01:59:41.876Z,101636.53
2022-10-05T02:03:01.908Z,101634.84
2022-10-05T02:06:13.136Z,101621.81
2022-10-05T02:09:24.936Z,101609.00
2022-10-05T02:12:31.266Z,101618.50
2022-10-05T02:15:42.852Z,101619.38
2022-10-05T02:18:54.376Z,101625.38
2022-10-05T02:22:03.244Z,101618.44
2022-10-05T02:25:14.205Z,101615.09
2022-10-05T02:28:30.546Z,101624.69
2022-10-05T02:31:45.186Z,101618.75
2022-10-05T02:34:47.061Z,101620.53
2022-10-05T02:38:18.364Z,101617.16
2022-10-05T02:41:47.513Z,101604.44
2022-10-05T02:45:01.994Z,101597.47
2022-10-05T02:48:22.465Z,101594.06
2022-10-05T02:51:35.073Z,101578.59
2022-10-05T02:54:55.349Z,101589.69
2022-10-05T02:58:04.307Z,101581.91
2022-10-05T03:01:24.158Z,101580.09
2022-10-05T03:04:55.401Z,101597.31
2022-10-05T03:08:18.946Z,101594.81
2022-10-05T03:11:46.655Z,101585.38
2022-10-05T03:15:06.338Z,101584.34
2022-10-05T03:18:42.722Z,101575.00
2022-10-05T03:21:57.387Z,101573.16
2022-10-05T03:25:23.614Z,101568.06
2022-10-05T03:28:58.492Z,101563.03
2022-10-05T03:32:02.910Z,101552.41
2022-10-05T03:35:18.050Z,101549.75
2022-10-05T03:38:29.463Z,101543.66
2022-10-05T03:41:46.500Z,101544.56
2022-10-05T03:45:05.736Z,101546.31
2022-10-05T03:48:15.379Z,101542.78
2022-10-05T03:51:42.840Z,101544.66
2022-10-05T03:54:47.091Z,101542.78
2022-10-05T03:57:51.708Z,101544.41
2022-10-05T04:00:59.816Z,101550.56
2022-10-05T04:04:04.844Z,101547.06
2022-10-05T04:07:21.872Z,101547.94
2022-10-05T04:10:27.036Z,101549.75
2022-10-05T04:13:42.249Z,101562.53
2022-10-05T04:16:54.809Z,101559.03
2022-10-05T04:20:05.565Z,101548.50
2022-10-05T04:23:10.589Z,101547.59
2022-10-05T04:26:24.782Z,101547.69
2022-10-05T04:29:53.247Z,101550.34
2022-10-05T04:32:56.731Z,101541.59
2022-10-05T04:36:07.870Z,101539.81
2022-10-05T04:39:21.158Z,101542.34
2022-10-05T04:42:30.883Z,101537.31
2022-10-05T04:45:50.142Z,101536.41
2022-10-05T04:49:29.330Z,101528.75
2022-10-05T04:52:40.101Z,101530.44
2022-10-05T04:55:57.774Z,101531.31
2022-10-05T04:59:30.803Z,101533.91
2022-10-05T05:02:44.942Z,101531.97
2022-10-05T05:06:15.909Z,101536.31
2022-10-05T05:09:42.478Z,101533.81
2022-10-05T05:13:16.621Z,101527.84
2022-10-05T05:16:38.793Z,101520.16
2022-10-05T05:19:54.866Z,101521.06
2022-10-05T05:23:10.059Z,101528.94
2022-10-05T05:26:30.114Z,101527.25
2022-10-05T05:30:03.193Z,101522.84
2022-10-05T05:33:22.367Z,101516.03
2022-10-05T05:36:43.145Z,101522.84
2022-10-05T05:39:50.764Z,101519.47
2022-10-05T05:43:24.430Z,101514.53
2022-10-05T05:47:01.565Z,101520.41
2022-10-05T05:50:31.075Z,101519.63
2022-10-05T05:53:44.242Z,101517.91
2022-10-05T05:57:05.479Z,101489.38
2022-10-05T06:00:24.535Z,101501.41
2022-10-05T06:03:48.944Z,101510.13
2022-10-05T06:06:53.738Z,101504.59
2022-10-05T06:10:05.857Z,101505.38
2022-10-05T06:13:35.144Z,101507.97
2022-10-05T06:16:43.647Z,101508.72
2022-10-05T06:19:47.088Z,101511.13
2022-10-05T06:22:50.541Z,101509.31
2022-10-05T06:26:13.500Z,101505.81
2022-10-05T06:29:22.853Z,101512.44
2022-10-05T06:32:36.624Z,101514.88
2022-10-05T06:35:56.976Z,101527.75
2022-10-05T06:39:07.961Z,101524.06
2022-10-05T06:42:15.726Z,101522.16
2022-10-05T06:46:20.737Z,101520.56
2022-10-05T06:50:07.017Z,101523.59
2022-10-05T06:53:41.453Z,101520.66
2022-10-05T06:56:50.630Z,101528.13
2022-10-05T07:00:19.330Z,101516.00
2022-10-05T07:03:48.978Z,101516.75
2022-10-05T07:06:56.639Z,101510.41
2022-10-05T07:10:07.745Z,101504.97
2022-10-05T07:13:24.776Z,101512.47
2022-10-05T07:16:59.833Z,101510.47
2022-10-05T07:20:07.524Z,101518.00
2022-10-05T07:23:36.990Z,101521.13
2022-10-05T07:27:17.761Z,101516.84
2022-10-05T07:30:19.931Z,101515.00
2022-10-05T07:33:28.807Z,101514.91
2022-10-05T07:36:41.611Z,101504.72
2022-10-05T07:40:09.776Z,101510.09
2022-10-05T07:44:00.424Z,101518.69
2022-10-05T07:47:06.132Z,101515.16
2022-10-05T07:50:44.198Z,101519.00
2022-10-05T07:54:05.973Z,101512.50
2022-10-05T07:57:20.186Z,101511.16
2022-10-05T08:00:24.456Z,101529.97
2022-10-05T08:03:42.841Z,101528.47
2022-10-05T08:06:57.716Z,101517.75
2022-10-05T08:10:28.590Z,101532.91
2022-10-05T08:13:47.386Z,101529.78
2022-10-05T08:16:53.738Z,101532.75
2022-10-05T08:20:17.042Z,101525.81
2022-10-05T08:23:42.295Z,101526.13
2022-10-05T08:26:49.652Z,101524.56
2022-10-05T08:30:08.690Z,101523.28
2022-10-05T08:33:16.586Z,101532.78
2022-10-05T08:36:31.797Z,101533.72
2022-10-05T08:39:41.449Z,101517.00
2022-10-05T08:43:07.694Z,101509.19
2022-10-05T08:46:18.360Z,101523.19
2022-10-05T08:49:42.358Z,101507.41
2022-10-05T08:53:01.574Z,101514.09
2022-10-05T08:56:26.373Z,101508.44
2022-10-05T09:00:07.885Z,101508.78
2022-10-05T09:03:28.985Z,101507.03
2022-10-05T09:06:57.596Z,101509.09
2022-10-05T09:10:17.652Z,101512.25
2022-10-05T09:13:39.938Z,101506.38
2022-10-05T09:16:49.399Z,101499.56
2022-10-05T09:20:16.191Z,101495.84
2022-10-05T09:23:34.739Z,101494.41
2022-10-05T09:26:53.011Z,101489.66
2022-10-05T09:30:19.384Z,101502.41
2022-10-05T09:33:55.193Z,101487.13
2022-10-05T09:37:33.181Z,101489.00
2022-10-05T09:40:53.303Z,101485.38
2022-10-05T09:44:16.120Z,101476.00
2022-10-05T09:47:26.053Z,101478.22
2022-10-05T09:50:46.188Z,101468.94
2022-10-05T09:54:09.494Z,101472.06
2022-10-05T09:57:25.873Z,101471.53
2022-10-05T10:00:34.925Z,101474.63
2022-10-05T10:04:13.573Z,101478.59
2022-10-05T10:07:35.994Z,101473.16
2022-10-05T10:10:43.329Z,101475.94
2022-10-05T10:14:12.040Z,101464.06
2022-10-05T10:17:24.945Z,101456.53
2022-10-05T10:20:26.309Z,101458.25
2022-10-05T10:23:49.497Z,101462.72
2022-10-05T10:27:18.602Z,101454.47
2022-10-05T10:30:41.079Z,101453.44
2022-10-05T10:34:19.219Z,101455.25
2022-10-05T10:37:57.483Z,101452.94
2022-10-05T10:41:26.170Z,101467.53
2022-10-05T10:44:54.911Z,101460.84
2022-10-05T10:48:04.623Z,101456.19
2022-10-05T10:51:05.899Z,101462.03
2022-10-05T10:54:32.650Z,101458.50
2022-10-05T10:58:15.086Z,101470.50
2022-10-05T11:01:34.518Z,101468.34
2022-10-05T11:04:47.799Z,101460.78
2022-10-05T11:08:07.423Z,101455.47
2022-10-05T11:11:56.348Z,101450.34
2022-10-05T11:15:25.148Z,101444.84
2022-10-05T11:18:41.376Z,101445.47
2022-10-05T11:22:20.342Z,101447.44
2022-10-05T11:25:48.679Z,101443.59
2022-10-05T11:29:11.891Z,101432.25
2022-10-05T11:32:13.208Z,101418.38
2022-10-05T11:35:46.627Z,101432.88
2022-10-05T11:39:25.032Z,101424.97
2022-10-05T11:43:05.226Z,101427.38
2022-10-05T11:46:43.677Z,101420.72
2022-10-05T11:49:47.780Z,101419.56
2022-10-05T11:53:06.347Z,101405.09
2022-10-05T12:00:09.409Z,101396.13
2022-10-05T12:03:10.946Z,101396.78
2022-10-05T12:06:39.868Z,101391.97
2022-10-05T12:10:08.323Z,101386.22
2022-10-05T12:13:44.992Z,101383.94
2022-10-05T12:16:57.083Z,101371.09
2022-10-05T12:20:03.048Z,101373.31
2022-10-05T12:23:32.229Z,101368.41
2022-10-05T12:26:40.153Z,101362.16
2022-10-05T12:29:54.175Z,101355.22
2022-10-05T12:33:05.913Z,101349.59
2022-10-05T12:36:36.003Z,101342.75
2022-10-05T12:39:56.353Z,101342.50
2022-10-05T12:43:39.706Z,101332.69
2022-10-05T12:47:07.041Z,101326.09
2022-10-05T12:50:30.732Z,101320.22
2022-10-05T12:53:41.389Z,101314.41
2022-10-05T12:56:50.205Z,101318.72
2022-10-05T13:00:04.466Z,101317.59
2022-10-05T13:03:23.978Z,101309.19
2022-10-05T13:07:05.058Z,101307.50
2022-10-05T13:10:26.838Z,101310.28
2022-10-05T13:13:39.245Z,101302.22
2022-10-05T13:17:06.981Z,101303.50
2022-10-05T13:20:32.552Z,101304.25
2022-10-05T13:23:47.327Z,101304.34
2022-10-05T13:27:15.814Z,101297.84
2022-10-05T13:30:20.198Z,101300.84
2022-10-05T13:33:28.471Z,101299.50
2022-10-05T13:36:41.110Z,101293.38
2022-10-05T13:40:06.383Z,101294.06
2022-10-05T13:43:16.163Z,101286.72
2022-10-05T13:46:37.577Z,101294.81
2022-10-05T13:49:49.554Z,101283.13
2022-10-05T13:53:12.787Z,101289.47
2022-10-05T13:56:33.324Z,101288.44
2022-10-05T13:59:49.584Z,101290.44
2022-10-05T14:02:53.256Z,101287.72
2022-10-05T14:05:57.757Z,101290.34
2022-10-05T14:08:59.204Z,101291.41
2022-10-05T14:12:03.325Z,101293.38
2022-10-05T14:15:20.518Z,101294.44
2022-10-05T14:18:27.462Z,101296.00
2022-10-05T14:21:31.064Z,101299.34
2022-10-05T14:24:44.873Z,101295.75
2022-10-05T14:28:03.899Z,101291.34
2022-10-05T14:31:16.357Z,101291.34
2022-10-05T14:34:27.090Z,101276.75
2022-10-05T14:37:41.897Z,101280.91
2022-10-05T14:40:43.337Z,101274.72
2022-10-05T14:44:00.105Z,101267.75
2022-10-05T14:47:19.958Z,101267.84
2022-10-05T14:50:23.943Z,101266.91
2022-10-05T14:53:37.611Z,101269.63
2022-10-05T14:56:53.555Z,101268.69
2022-10-05T14:59:57.856Z,101260.84
2022-10-05T15:03:18.672Z,101267.84
2022-10-05T15:06:44.150Z,101267.00
2022-10-05T15:10:23.333Z,101254.19
2022-10-05T15:13:30.898Z,101251.47
2022-10-05T15:16:35.816Z,101245.44
2022-10-05T15:19:47.755Z,101236.88
2022-10-05T15:22:58.627Z,101230.81
2022-10-05T15:26:18.273Z,101222.75
2022-10-05T15:29:47.333Z,101224.75
2022-10-05T15:33:21.367Z,101203.84
2022-10-05T15:36:49.416Z,101210.50
2022-10-05T15:39:56.118Z,101202.09
2022-10-05T15:43:04.246Z,101203.41
2022-10-05T15:46:11.299Z,101207.19
2022-10-05T15:49:33.572Z,101212.53
2022-10-05T15:52:46.313Z,101222.22
2022-10-05T15:55:52.161Z,101223.41
2022-10-05T15:59:07.896Z,101226.00
2022-10-05T16:02:22.572Z,101221.84
2022-10-05T16:05:47.808Z,101220.53
2022-10-05T16:09:05.776Z,101221.91
2022-10-05T16:12:34.024Z,101228.59
2022-10-05T16:15:40.096Z,101217.53
2022-10-05T16:18:52.853Z,101227.81
2022-10-05T16:22:03.348Z,101229.28
2022-10-05T16:25:10.509Z,101225.09
2022-10-05T16:28:14.820Z,101221.38
2022-10-05T16:31:22.563Z,101228.91
2022-10-05T16:34:48.870Z,101235.72
2022-10-05T16:38:29.397Z,101252.28
2022-10-05T16:41:34.519Z,101255.59
2022-10-05T16:44:40.934Z,101257.59
2022-10-05T16:47:52.908Z,101270.63
2022-10-05T16:51:19.376Z,101277.81
2022-10-05T16:54:30.185Z,101281.06
2022-10-05T16:57:38.820Z,101284.59
2022-10-05T17:01:24.735Z,101277.81
2022-10-05T17:04:39.457Z,101280.44
2022-10-05T17:07:49.963Z,101282.75
2022-10-05T17:11:03.498Z,101294.41
2022-10-05T17:14:27.716Z,101290.53
2022-10-05T17:17:59.663Z,101290.41
2022-10-05T17:21:17.807Z,101295.28
2022-10-05T17:24:29.871Z,101289.16
2022-10-05T17:27:34.003Z,101296.16
2022-10-05T17:30:46.760Z,101298.88
2022-10-05T17:33:59.972Z,101299.06
2022-10-05T17:37:18.247Z,101294.81
2022-10-05T17:40:33.926Z,101288.75
2022-10-05T17:43:35.595Z,101295.63
2022-10-05T17:46:44.535Z,101295.63
2022-10-05T17:49:59.416Z,101291.47
2022-10-05T17:53:37.582Z,101287.63
2022-10-05T17:56:44.942Z,101293.53
2022-10-05T17:59:57.150Z,101276.03
2022-10-05T18:02:58.652Z,101278.66
2022-10-05T18:06:25.098Z,101272.09
2022-10-05T18:09:26.401Z,101274.47
2022-10-05T18:12:41.345Z,101270.19
2022-10-05T18:15:45.768Z,101265.94
2022-10-05T18:18:56.929Z,101267.59
2022-10-05T18:22:13.351Z,101264.28
2022-10-05T18:25:17.646Z,101265.72
2022-10-05T18:28:31.561Z,101255.59
2022-10-05T18:31:39.405Z,101272.91
2022-10-05T18:35:19.599Z,101267.00
2022-10-05T18:38:55.883Z,101255.94
2022-10-05T18:42:09.415Z,101261.97
2022-10-05T18:45:19.764Z,101258.53
2022-10-05T18:48:58.644Z,101259.81
2022-10-05T18:52:28.216Z,101258.88
2022-10-05T18:55:37.074Z,101264.94
2022-10-05T18:58:56.938Z,101262.63
2022-10-05T19:02:18.791Z,101270.13
2022-10-05T19:05:47.449Z,101261.16
2022-10-05T19:09:14.393Z,101279.41
2022-10-05T19:12:53.261Z,101267.19
2022-10-05T19:16:19.994Z,101274.50
2022-10-05T19:19:39.481Z,101272.63
2022-10-05T19:23:11.090Z,101266.97
2022-10-05T19:26:43.229Z,101265.31
2022-10-05T19:30:03.393Z,101267.81
2022-10-05T19:33:10.813Z,101281.03
2022-10-05T19:36:21.475Z,101287.38
2022-10-05T19:39:36.825Z,101290.81
2022-10-05T19:43:00.893Z,101291.53
2022-10-05T19:46:17.700Z,101283.53
2022-10-05T19:49:53.803Z,101287.88
2022-10-05T19:53:43.867Z,101309.91
2022-10-05T19:56:48.003Z,101298.59
2022-10-05T19:59:49.351Z,101294.94
2022-10-05T20:03:11.695Z,101297.66
2022-10-05T20:06:13.130Z,101297.66
2022-10-05T20:09:21.326Z,101299.09
2022-10-05T20:12:22.759Z,101303.91
2022-10-05T20:15:36.000Z,101307.44
2022-10-05T20:18:40.320Z,101306.88
2022-10-05T20:21:47.803Z,101299.09
2022-10-05T20:24:51.228Z,101300.25
2022-10-05T20:27:54.023Z,101302.69
2022-10-05T20:30:55.608Z,101312.19
2022-10-05T20:33:59.196Z,101310.09
2022-10-05T20:37:00.531Z,101322.06
2022-10-05T20:40:02.325Z,101318.53
2022-10-05T20:43:03.680Z,101325.63
2022-10-05T20:46:05.167Z,101318.63
2022-10-05T20:49:06.497Z,101316.84
2022-10-05T20:52:09.426Z,101325.53
2022-10-05T20:55:11.360Z,101322.06
2022-10-05T20:58:12.688Z,101330.34
2022-10-05T21:01:14.091Z,101327.31
2022-10-05T21:04:17.615Z,101325.75
2022-10-05T21:07:19.397Z,101333.59
2022-10-05T21:10:20.725Z,101330.78
2022-10-05T21:13:22.138Z,101340.25
2022-10-05T21:16:23.538Z,101341.28
2022-10-05T21:19:25.013Z,101344.41
2022-10-05T21:22:26.362Z,101351.31
2022-10-05T21:25:27.678Z,101361.22
2022-10-05T21:28:29.511Z,101365.81
2022-10-05T21:31:31.286Z,101363.72
2022-10-05T21:34:32.694Z,101367.88
2022-10-05T21:37:33.998Z,101372.78
2022-10-05T21:40:35.344Z,101371.75
2022-10-05T21:43:36.801Z,101373.22
2022-10-05T21:46:39.021Z,101381.88
2022-10-05T21:49:41.280Z,101371.44
2022-10-05T21:52:42.951Z,101368.00
2022-10-05T21:55:48.011Z,101371.44
2022-10-05T21:58:50.816Z,101374.03
2022-10-05T22:01:52.149Z,101376.47
2022-10-05T22:04:53.480Z,101380.81
2022-10-05T22:07:54.783Z,101377.50
2022-10-05T22:10:57.027Z,101385.81
2022-10-05T22:13:58.649Z,101383.22
2022-10-05T22:17:00.029Z,101392.72
2022-10-05T22:20:02.170Z,101402.22
2022-10-05T22:23:03.504Z,101412.63
2022-10-05T22:26:06.425Z,101416.94
2022-10-05T22:29:07.860Z,101429.66
2022-10-05T22:32:09.272Z,101456.13
2022-10-05T22:35:11.901Z,101463.94
2022-10-05T22:38:13.354Z,101471.03
2022-10-05T22:41:15.151Z,101495.78
2022-10-05T22:44:16.538Z,101462.63
2022-10-05T22:47:17.857Z,101463.31
2022-10-05T22:50:19.322Z,101475.59
2022-10-05T22:53:20.658Z,101485.25
2022-10-05T22:56:21.986Z,101500.16
2022-10-05T22:59:23.341Z,101503.69
2022-10-05T23:02:24.748Z,101505.34
2022-10-05T23:05:26.181Z,101504.50
2022-10-05T23:08:28.042Z,101518.38
2022-10-05T23:11:29.578Z,101519.28
2022-10-05T23:14:30.895Z,101512.41
2022-10-05T23:17:32.286Z,101517.81
2022-10-05T23:20:33.593Z,101516.13
2022-10-05T23:23:43.180Z,101505.81
2022-10-05T23:26:44.511Z,101516.25
2022-10-05T23:29:46.286Z,101527.41
2022-10-05T23:32:47.603Z,101527.09
2022-10-05T23:35:48.947Z,101541.88
2022-10-05T23:38:50.507Z,101545.44
2022-10-05T23:41:51.981Z,101556.97
2022-10-05T23:44:53.318Z,101570.13
2022-10-05T23:47:54.658Z,101579.81
2022-10-05T23:50:56.041Z,101584.34
2022-10-05T23:53:57.379Z,101592.34
2022-10-05T23:56:58.713Z,101593.28
